createdAt,value
2019-02-24T00:01:35.777Z,-3.60
2019-02-24T00:04:11.716Z,-3.70
2019-02-24T00:06:42.872Z,-3.70
2019-02-24T00:09:13.812Z,-3.80
2019-02-24T00:11:47.852Z,-3.80
2019-02-24T00:14:17.948Z,-3.90
2019-02-24T00:16:48.048Z,-4.00
2019-02-24T00:19:19.132Z,-4.10
2019-02-24T00:21:49.224Z,-4.00
2019-02-24T00:24:20.340Z,-4.10
2019-02-24T00:26:56.152Z,-4.20
2019-02-24T00:29:26.241Z,-4.30
2019-02-24T00:31:56.344Z,-4.30
2019-02-24T00:34:28.441Z,-4.30
2019-02-24T00:36:59.492Z,-4.30
2019-02-24T00:39:30.534Z,-4.30
2019-02-24T00:42:00.641Z,-4.30
2019-02-24T00:44:30.725Z,-4.30
2019-02-24T00:47:02.740Z,-4.30
2019-02-24T00:49:32.860Z,-4.30
2019-02-24T00:52:03.884Z,-4.10
2019-02-24T00:54:33.987Z,-3.90
2019-02-24T00:57:06.058Z,-3.60
2019-02-24T00:59:38.391Z,-3.60
2019-02-24T01:02:08.428Z,-3.60
2019-02-24T01:04:48.814Z,-3.60
2019-02-24T01:07:20.800Z,-3.50
2019-02-24T01:09:50.912Z,-3.30
2019-02-24T01:12:26.849Z,-3.30
2019-02-24T01:14:56.940Z,-3.20
2019-02-24T01:17:33.021Z,-3.20
2019-02-24T01:20:03.461Z,-3.10
2019-02-24T01:22:33.556Z,-3.00
2019-02-24T01:25:09.858Z,-2.90
2019-02-24T01:27:39.956Z,-2.80
2019-02-24T01:30:15.965Z,-2.80
2019-02-24T01:32:52.051Z,-2.70
2019-02-24T01:35:24.820Z,-2.60
2019-02-24T01:37:54.911Z,-2.70
2019-02-24T01:40:25.008Z,-2.70
2019-02-24T01:42:55.104Z,-2.70
2019-02-24T01:45:32.000Z,-2.60
2019-02-24T01:48:08.133Z,-2.60
2019-02-24T01:50:50.261Z,-2.60
2019-02-24T01:53:26.492Z,-2.50
2019-02-24T01:55:56.588Z,-2.40
2019-02-24T01:58:34.901Z,-2.30
2019-02-24T02:00:59.461Z,-2.20
2019-02-24T02:03:35.261Z,-2.30
2019-02-24T02:06:05.333Z,-2.40
2019-02-24T02:08:35.423Z,-2.50
2019-02-24T02:11:11.556Z,-2.50
2019-02-24T02:13:41.656Z,-2.50
2019-02-24T02:16:17.440Z,-2.60
2019-02-24T02:18:49.528Z,-2.60
2019-02-24T02:21:19.615Z,-2.70
2019-02-24T02:23:50.606Z,-2.70
2019-02-24T02:26:22.652Z,-2.70
2019-02-24T02:28:52.744Z,-2.60
2019-02-24T02:31:25.932Z,-2.70
2019-02-24T02:33:56.932Z,-2.60
2019-02-24T02:36:27.034Z,-2.70
2019-02-24T02:39:05.124Z,-2.80
2019-02-24T02:41:35.332Z,-3.10
2019-02-24T02:44:07.394Z,-3.40
2019-02-24T02:46:37.477Z,-3.50
2019-02-24T02:49:07.573Z,-3.70
2019-02-24T02:51:38.680Z,-3.70
2019-02-24T02:54:08.740Z,-3.80
2019-02-24T02:56:38.841Z,-3.90
2019-02-24T02:59:09.830Z,-4.10
2019-02-24T03:01:39.922Z,-4.20
2019-02-24T03:04:11.009Z,-4.40
2019-02-24T03:06:42.744Z,-4.40
2019-02-24T03:09:12.888Z,-4.60
2019-02-24T03:11:43.052Z,-4.60
2019-02-24T03:14:16.276Z,-4.60
2019-02-24T03:16:46.383Z,-4.50
2019-02-24T03:19:19.489Z,-4.60
2019-02-24T03:21:49.583Z,-4.70
2019-02-24T03:24:21.560Z,-4.80
2019-02-24T03:26:56.757Z,-4.90
2019-02-24T03:29:27.854Z,-5.00
2019-02-24T03:31:58.882Z,-5.00
2019-02-24T03:34:28.986Z,-5.00
2019-02-24T03:36:59.069Z,-5.10
2019-02-24T03:39:29.164Z,-5.10
2019-02-24T03:42:08.273Z,-5.10
2019-02-24T03:44:38.380Z,-5.00
2019-02-24T03:47:09.457Z,-4.90
2019-02-24T03:49:39.554Z,-4.70
2019-02-24T03:52:09.636Z,-4.70
2019-02-24T03:54:42.756Z,-4.50
2019-02-24T03:57:27.930Z,-4.30
2019-02-24T03:59:58.033Z,-4.20
2019-02-24T04:02:30.168Z,-4.20
2019-02-24T04:05:06.828Z,-4.20
2019-02-24T04:07:36.912Z,-4.20
2019-02-24T04:10:08.355Z,-4.20
2019-02-24T04:12:38.436Z,-4.20
2019-02-24T04:15:08.661Z,-4.20
2019-02-24T04:17:40.822Z,-4.20
2019-02-24T04:20:12.812Z,-4.10
2019-02-24T04:22:42.908Z,-4.20
2019-02-24T04:25:13.023Z,-4.20
2019-02-24T04:27:45.005Z,-4.20
2019-02-24T04:30:16.066Z,-4.20
2019-02-24T04:32:49.205Z,-4.00
2019-02-24T04:35:20.332Z,-3.90
2019-02-24T04:37:50.429Z,-3.80
2019-02-24T04:40:20.525Z,-3.70
2019-02-24T04:42:50.626Z,-3.70
2019-02-24T04:45:20.713Z,-3.70
2019-02-24T04:47:55.913Z,-3.80
2019-02-24T04:50:31.977Z,-3.90
2019-02-24T04:53:02.082Z,-3.90
2019-02-24T04:55:32.172Z,-3.80
2019-02-24T04:58:08.253Z,-3.60
2019-02-24T05:00:38.341Z,-3.60
2019-02-24T05:03:08.426Z,-3.50
2019-02-24T05:05:38.502Z,-3.50
2019-02-24T05:08:08.598Z,-3.60
2019-02-24T05:10:38.668Z,-3.50
2019-02-24T05:13:08.789Z,-3.60
2019-02-24T05:15:45.732Z,-3.50
2019-02-24T05:18:15.843Z,-3.40
2019-02-24T05:20:47.926Z,-3.50
2019-02-24T05:23:18.005Z,-3.50
2019-02-24T05:25:49.226Z,-3.50
2019-02-24T05:28:19.314Z,-3.40
2019-02-24T05:30:54.575Z,-3.40
2019-02-24T05:33:24.656Z,-3.50
2019-02-24T05:36:01.573Z,-3.50
2019-02-24T05:38:31.644Z,-3.60
2019-02-24T05:41:02.690Z,-3.60
2019-02-24T05:43:32.774Z,-3.60
2019-02-24T05:46:02.861Z,-3.60
2019-02-24T05:48:33.905Z,-3.60
2019-02-24T05:51:04.944Z,-3.60
2019-02-24T05:53:35.028Z,-3.50
2019-02-24T05:56:05.109Z,-3.40
2019-02-24T05:58:36.189Z,-3.30
2019-02-24T06:01:06.277Z,-3.30
2019-02-24T06:03:37.349Z,-3.30
2019-02-24T06:06:07.470Z,-3.40
2019-02-24T06:08:40.653Z,-3.50
2019-02-24T06:11:26.131Z,-3.50
2019-02-24T06:13:57.213Z,-3.50
2019-02-24T06:16:27.292Z,-3.50
2019-02-24T06:18:58.332Z,-3.60
2019-02-24T06:21:28.414Z,-3.50
2019-02-24T06:23:58.566Z,-3.50
2019-02-24T06:26:30.160Z,-3.40
2019-02-24T06:29:00.417Z,-3.30
2019-02-24T06:31:30.492Z,-3.20
2019-02-24T06:34:00.573Z,-3.20
2019-02-24T06:36:30.691Z,-3.10
2019-02-24T06:39:11.799Z,-3.00
2019-02-24T06:41:43.453Z,-3.00
2019-02-24T06:44:14.464Z,-2.90
2019-02-24T06:46:47.978Z,-2.80
2019-02-24T06:49:18.083Z,-2.80
2019-02-24T06:51:54.141Z,-2.80
2019-02-24T06:54:26.149Z,-2.80
2019-02-24T06:56:59.302Z,-2.90
2019-02-24T06:59:29.417Z,-2.90
2019-02-24T07:01:59.505Z,-2.90
2019-02-24T07:04:29.589Z,-2.80
2019-02-24T07:06:59.705Z,-2.80
2019-02-24T07:09:30.708Z,-2.70
2019-02-24T07:12:00.802Z,-2.60
2019-02-24T07:14:30.905Z,-2.00
2019-02-24T07:17:03.845Z,-1.20
2019-02-24T07:19:35.296Z,-0.30
2019-02-24T07:22:14.198Z,0.50
2019-02-24T07:24:52.303Z,1.30
2019-02-24T07:27:30.231Z,2.10
2019-02-24T07:30:01.251Z,2.80
2019-02-24T07:32:31.325Z,3.20
2019-02-24T07:35:07.888Z,3.50
2019-02-24T07:37:37.967Z,3.70
2019-02-24T07:40:08.072Z,3.90
2019-02-24T07:42:39.044Z,4.20
2019-02-24T07:45:09.789Z,4.20
2019-02-24T07:47:39.866Z,4.10
2019-02-24T07:50:10.925Z,4.20
2019-02-24T07:52:43.669Z,4.40
2019-02-24T07:55:13.808Z,4.50
2019-02-24T07:57:48.041Z,4.50
2019-02-24T08:00:18.117Z,4.60
2019-02-24T08:02:48.218Z,5.00
2019-02-24T08:05:31.240Z,5.50
2019-02-24T08:08:03.249Z,5.80
2019-02-24T08:10:33.317Z,6.10
2019-02-24T08:13:03.498Z,6.30
2019-02-24T08:15:35.529Z,6.40
2019-02-24T08:18:05.666Z,6.70
2019-02-24T08:20:37.717Z,6.50
2019-02-24T08:23:08.756Z,6.70
2019-02-24T08:25:38.833Z,6.90
2019-02-24T08:28:08.965Z,7.00
2019-02-24T08:30:41.924Z,6.80
2019-02-24T08:33:11.149Z,6.20
2019-02-24T08:35:41.221Z,6.00
2019-02-24T08:38:11.303Z,6.60
2019-02-24T08:40:41.385Z,7.60
2019-02-24T08:43:11.469Z,7.30
2019-02-24T08:45:41.533Z,6.50
2019-02-24T08:48:11.617Z,5.70
2019-02-24T08:50:44.277Z,5.20
2019-02-24T08:53:15.328Z,4.70
2019-02-24T08:55:45.405Z,4.40
2019-02-24T08:58:16.629Z,4.30
2019-02-24T09:00:50.950Z,4.30
2019-02-24T09:03:18.649Z,4.50
2019-02-24T09:05:50.529Z,4.80
2019-02-24T09:08:20.628Z,5.10
2019-02-24T09:10:51.744Z,5.30
2019-02-24T09:13:25.757Z,5.60
2019-02-24T09:15:57.018Z,5.70
2019-02-24T09:18:27.608Z,5.80
2019-02-24T09:20:57.689Z,6.00
2019-02-24T09:23:27.789Z,6.20
2019-02-24T09:25:57.924Z,6.60
2019-02-24T09:28:28.949Z,6.50
2019-02-24T09:31:00.978Z,6.40
2019-02-24T09:33:31.377Z,6.80
2019-02-24T09:36:01.461Z,6.90
2019-02-24T09:38:31.563Z,7.40
2019-02-24T09:41:01.609Z,7.60
2019-02-24T09:43:31.677Z,7.50
2019-02-24T09:46:01.765Z,7.70
2019-02-24T09:48:31.865Z,8.30
2019-02-24T09:51:02.238Z,8.20
2019-02-24T09:53:34.241Z,8.40
2019-02-24T09:56:04.317Z,8.50
2019-02-24T09:58:34.397Z,8.80
2019-02-24T10:01:10.809Z,8.90
2019-02-24T10:03:36.523Z,9.40
2019-02-24T10:06:06.597Z,9.50
2019-02-24T10:08:36.686Z,9.40
2019-02-24T10:11:07.765Z,9.20
2019-02-24T10:13:37.836Z,8.90
2019-02-24T10:16:08.877Z,9.00
2019-02-24T10:18:38.969Z,9.10
2019-02-24T10:21:09.461Z,9.30
2019-02-24T10:23:39.601Z,9.70
2019-02-24T10:26:09.693Z,9.80
2019-02-24T10:28:40.697Z,9.70
2019-02-24T10:31:19.438Z,10.10
2019-02-24T10:33:42.694Z,10.70
2019-02-24T10:36:12.888Z,11.40
2019-02-24T10:38:42.989Z,11.50
2019-02-24T10:41:13.089Z,11.60
2019-02-24T10:43:43.186Z,10.80
2019-02-24T10:46:13.285Z,9.60
2019-02-24T10:48:43.413Z,8.50
2019-02-24T10:51:13.493Z,8.00
2019-02-24T10:53:43.576Z,8.00
2019-02-24T10:56:13.657Z,8.50
2019-02-24T10:58:43.755Z,9.90
2019-02-24T11:01:13.861Z,11.90
2019-02-24T11:03:44.837Z,15.00
2019-02-24T11:06:14.934Z,17.50
2019-02-24T11:08:45.021Z,18.40
2019-02-24T11:11:15.109Z,17.40
2019-02-24T11:13:46.086Z,17.10
2019-02-24T11:16:17.191Z,15.80
2019-02-24T11:18:47.253Z,14.50
2019-02-24T11:21:17.376Z,13.80
2019-02-24T11:23:49.867Z,13.20
2019-02-24T11:26:19.865Z,13.20
2019-02-24T11:28:49.965Z,13.50
2019-02-24T11:31:22.650Z,14.10
2019-02-24T11:33:52.769Z,13.80
2019-02-24T11:36:22.901Z,14.00
2019-02-24T11:38:54.990Z,14.70
2019-02-24T11:41:25.088Z,17.20
2019-02-24T11:43:56.192Z,17.20
2019-02-24T11:46:26.288Z,17.70
2019-02-24T11:48:59.909Z,18.50
2019-02-24T11:51:30.007Z,20.00
2019-02-24T11:54:00.100Z,21.50
2019-02-24T11:56:30.209Z,20.70
2019-02-24T11:59:00.293Z,17.40
2019-02-24T12:01:30.401Z,16.20
2019-02-24T12:04:00.509Z,14.90
2019-02-24T12:06:30.600Z,15.70
2019-02-24T12:09:05.169Z,16.50
2019-02-24T12:11:34.417Z,16.00
2019-02-24T12:14:04.568Z,15.70
2019-02-24T12:16:34.729Z,16.30
2019-02-24T12:19:04.829Z,16.20
2019-02-24T12:21:35.061Z,15.30
2019-02-24T12:24:11.185Z,14.50
2019-02-24T12:26:41.285Z,15.00
2019-02-24T12:29:15.133Z,15.40
2019-02-24T12:31:46.245Z,16.30
2019-02-24T12:34:17.233Z,16.40
2019-02-24T12:36:48.925Z,17.40
2019-02-24T12:39:19.013Z,19.00
2019-02-24T12:41:50.085Z,19.80
2019-02-24T12:44:22.053Z,20.50
2019-02-24T12:46:54.033Z,21.20
2019-02-24T12:49:24.337Z,23.10
2019-02-24T12:52:07.520Z,24.80
2019-02-24T12:54:37.621Z,25.20
2019-02-24T12:57:13.953Z,25.90
2019-02-24T12:59:44.041Z,27.60
2019-02-24T13:02:16.249Z,27.70
2019-02-24T13:04:47.261Z,25.70
2019-02-24T13:07:17.369Z,23.40
2019-02-24T13:09:52.377Z,22.50
2019-02-24T13:12:22.663Z,21.70
2019-02-24T13:14:52.726Z,21.80
2019-02-24T13:17:28.396Z,21.10
2019-02-24T13:20:00.537Z,20.40
2019-02-24T13:22:30.709Z,19.30
2019-02-24T13:25:00.869Z,19.10
2019-02-24T13:27:30.975Z,19.90
2019-02-24T13:30:03.566Z,19.30
2019-02-24T13:32:37.005Z,19.50
2019-02-24T13:35:12.551Z,19.20
2019-02-24T13:37:42.713Z,18.20
2019-02-24T13:40:17.715Z,17.70
2019-02-24T13:42:52.353Z,17.40
2019-02-24T13:45:23.497Z,17.60
2019-02-24T13:47:53.579Z,18.40
2019-02-24T13:50:25.645Z,19.20
2019-02-24T13:52:55.837Z,19.90
2019-02-24T13:55:26.993Z,19.50
2019-02-24T13:57:57.081Z,19.20
2019-02-24T14:00:27.251Z,19.00
2019-02-24T14:02:58.305Z,18.80
2019-02-24T14:05:28.384Z,19.60
2019-02-24T14:08:10.657Z,19.80
2019-02-24T14:10:40.729Z,19.10
2019-02-24T14:13:10.820Z,19.40
2019-02-24T14:15:43.842Z,20.40
2019-02-24T14:18:17.949Z,22.10
2019-02-24T14:20:49.557Z,21.60
2019-02-24T14:23:27.813Z,21.50
2019-02-24T14:25:58.025Z,21.60
2019-02-24T14:28:28.113Z,20.80
2019-02-24T14:31:00.209Z,20.10
2019-02-24T14:33:37.302Z,20.00
2019-02-24T14:36:10.053Z,20.60
2019-02-24T14:38:40.161Z,20.20
2019-02-24T14:41:10.569Z,20.20
2019-02-24T14:43:40.689Z,19.30
2019-02-24T14:46:12.517Z,17.70
2019-02-24T14:48:44.718Z,16.90
2019-02-24T14:51:14.480Z,17.10
2019-02-24T14:53:51.346Z,16.60
2019-02-24T14:56:21.445Z,16.50
2019-02-24T14:58:59.269Z,16.20
2019-02-24T15:01:33.127Z,16.60
2019-02-24T15:04:06.477Z,17.60
2019-02-24T15:06:36.572Z,18.20
2019-02-24T15:09:08.080Z,17.80
2019-02-24T15:11:54.114Z,18.20
2019-02-24T15:14:37.380Z,19.10
2019-02-24T15:17:15.261Z,18.80
2019-02-24T15:19:51.132Z,18.50
2019-02-24T15:22:23.214Z,18.20
2019-02-24T15:24:53.333Z,17.30
2019-02-24T15:27:23.415Z,16.90
2019-02-24T15:29:55.517Z,15.90
2019-02-24T15:32:25.605Z,16.10
2019-02-24T15:34:55.685Z,16.10
2019-02-24T15:37:27.816Z,15.80
2019-02-24T15:40:07.417Z,15.20
2019-02-24T15:42:39.522Z,14.80
2019-02-24T15:45:11.233Z,14.20
2019-02-24T15:47:43.213Z,14.10
2019-02-24T15:50:15.342Z,14.20
2019-02-24T15:52:49.434Z,13.90
2019-02-24T15:55:19.541Z,14.40
2019-02-24T15:57:49.625Z,14.40
2019-02-24T16:00:27.197Z,14.10
2019-02-24T16:03:03.134Z,13.80
2019-02-24T16:05:34.233Z,13.40
2019-02-24T16:08:04.373Z,13.10
2019-02-24T16:10:34.467Z,12.80
2019-02-24T16:13:04.574Z,12.60
2019-02-24T16:15:39.913Z,12.50
2019-02-24T16:18:10.021Z,12.40
2019-02-24T16:20:40.184Z,12.10
2019-02-24T16:23:10.293Z,11.60
2019-02-24T16:25:41.330Z,11.10
2019-02-24T16:28:12.347Z,10.70
2019-02-24T16:30:42.441Z,10.50
2019-02-24T16:33:14.314Z,10.30
2019-02-24T16:35:45.357Z,10.20
2019-02-24T16:38:18.622Z,9.90
2019-02-24T16:40:54.717Z,9.60
2019-02-24T16:43:26.697Z,9.30
2019-02-24T16:45:56.797Z,8.80
2019-02-24T16:48:26.877Z,8.20
2019-02-24T16:50:57.961Z,7.60
2019-02-24T16:53:28.038Z,7.00
2019-02-24T16:55:58.113Z,6.40
2019-02-24T16:58:28.188Z,5.80
2019-02-24T17:01:00.912Z,5.40
2019-02-24T17:03:31.752Z,5.10
2019-02-24T17:06:02.786Z,4.90
2019-02-24T17:08:32.857Z,4.60
2019-02-24T17:11:07.418Z,4.40
2019-02-24T17:13:34.701Z,4.20
2019-02-24T17:16:04.778Z,4.20
2019-02-24T17:18:34.849Z,4.10
2019-02-24T17:21:05.018Z,3.90
2019-02-24T17:23:36.184Z,3.70
2019-02-24T17:26:13.208Z,3.60
2019-02-24T17:28:45.515Z,3.50
2019-02-24T17:31:15.969Z,3.40
2019-02-24T17:33:54.213Z,3.30
2019-02-24T17:36:24.369Z,3.20
2019-02-24T17:38:55.411Z,3.00
2019-02-24T17:41:25.481Z,2.70
2019-02-24T17:43:57.585Z,2.50
2019-02-24T17:46:27.657Z,2.30
2019-02-24T17:48:57.752Z,2.20
2019-02-24T17:51:29.757Z,2.00
2019-02-24T17:53:59.893Z,1.90
2019-02-24T17:56:29.969Z,1.80
2019-02-24T17:59:00.042Z,1.70
2019-02-24T18:01:30.197Z,1.60
2019-02-24T18:04:01.413Z,1.50
2019-02-24T18:06:31.497Z,1.50
2019-02-24T18:09:01.585Z,1.50
2019-02-24T18:11:33.294Z,1.60
2019-02-24T18:14:04.403Z,1.50
2019-02-24T18:16:40.556Z,1.30
2019-02-24T18:19:11.985Z,1.00
2019-02-24T18:21:43.183Z,0.90
2019-02-24T18:24:16.916Z,0.70
2019-02-24T18:26:48.032Z,0.60
2019-02-24T18:29:18.132Z,0.60
2019-02-24T18:31:48.693Z,0.70
2019-02-24T18:34:19.849Z,0.80
2019-02-24T18:36:50.865Z,0.70
2019-02-24T18:39:20.957Z,0.60
2019-02-24T18:41:51.117Z,0.60
2019-02-24T18:44:21.202Z,0.60
2019-02-24T18:46:51.281Z,0.60
2019-02-24T18:49:26.478Z,0.60
2019-02-24T18:51:56.559Z,0.60
2019-02-24T18:54:34.517Z,0.50
2019-02-24T18:56:59.288Z,0.40
2019-02-24T18:59:29.437Z,0.30
2019-02-24T19:01:59.537Z,0.40
2019-02-24T19:04:29.622Z,0.40
2019-02-24T19:07:00.717Z,0.60
2019-02-24T19:09:31.761Z,0.70
2019-02-24T19:12:03.609Z,0.60
2019-02-24T19:14:33.713Z,0.50
2019-02-24T19:17:03.793Z,0.50
2019-02-24T19:19:33.889Z,0.40
2019-02-24T19:22:07.286Z,0.30
2019-02-24T19:24:37.390Z,0.20
2019-02-24T19:27:07.501Z,0.10
2019-02-24T19:29:38.093Z,0.00
2019-02-24T19:32:08.241Z,-0.20
2019-02-24T19:34:38.378Z,-0.30
2019-02-24T19:37:08.457Z,-0.30
2019-02-24T19:39:39.570Z,-0.40
2019-02-24T19:42:10.655Z,-0.50
2019-02-24T19:44:40.733Z,-0.50
2019-02-24T19:47:16.230Z,-0.60
2019-02-24T19:49:50.389Z,-0.50
2019-02-24T19:52:21.505Z,-0.50
2019-02-24T19:54:51.613Z,-0.60
2019-02-24T19:57:22.633Z,-0.60
2019-02-24T19:59:52.717Z,-0.40
2019-02-24T20:02:22.825Z,-0.20
2019-02-24T20:04:53.937Z,-0.10
2019-02-24T20:07:24.066Z,-0.10
2019-02-24T20:09:54.133Z,-0.20
2019-02-24T20:12:25.293Z,-0.20
2019-02-24T20:14:55.373Z,-0.20
2019-02-24T20:17:25.455Z,-0.30
2019-02-24T20:19:55.561Z,-0.30
2019-02-24T20:22:25.671Z,-0.30
2019-02-24T20:24:55.745Z,-0.30
2019-02-24T20:27:25.857Z,-0.30
2019-02-24T20:29:55.935Z,-0.30
2019-02-24T20:32:26.009Z,-0.30
2019-02-24T20:34:56.109Z,-0.40
2019-02-24T20:40:32.561Z,-0.60
2019-02-24T20:43:07.833Z,-0.70
2019-02-24T20:45:37.934Z,-0.80
2019-02-24T20:48:08.017Z,-0.90
2019-02-24T20:50:39.085Z,-1.00
2019-02-24T20:53:09.141Z,-0.80
2019-02-24T20:55:42.733Z,-0.80
2019-02-24T20:58:13.833Z,-0.80
2019-02-24T21:00:58.795Z,-0.90
2019-02-24T21:03:36.133Z,-1.00
2019-02-24T21:06:06.221Z,-0.90
2019-02-24T21:08:36.305Z,-1.00
2019-02-24T21:11:06.497Z,-1.20
2019-02-24T21:13:36.665Z,-1.30
2019-02-24T21:16:06.765Z,-1.30
2019-02-24T21:18:36.853Z,-1.40
2019-02-24T21:21:07.917Z,-1.40
2019-02-24T21:23:38.033Z,-1.50
2019-02-24T21:26:08.125Z,-1.40
2019-02-24T21:28:39.221Z,-1.40
2019-02-24T21:31:09.309Z,-1.40
2019-02-24T21:33:40.299Z,-1.40
2019-02-24T21:36:10.398Z,-1.40
2019-02-24T21:38:40.485Z,-1.50
2019-02-24T21:41:10.589Z,-1.50
2019-02-24T21:43:41.649Z,-1.60
2019-02-24T21:46:12.689Z,-1.60
2019-02-24T21:48:42.813Z,-1.60
2019-02-24T21:51:12.885Z,-1.60
2019-02-24T21:53:43.977Z,-1.60
2019-02-24T21:56:14.088Z,-1.70
2019-02-24T21:58:44.169Z,-1.80
2019-02-24T22:01:14.260Z,-1.90
2019-02-24T22:03:44.353Z,-1.90
2019-02-24T22:06:14.529Z,-2.00
2019-02-24T22:08:44.625Z,-1.90
2019-02-24T22:11:15.781Z,-1.90
2019-02-24T22:13:45.886Z,-1.90
2019-02-24T22:16:15.965Z,-1.90
2019-02-24T22:18:46.065Z,-1.80
2019-02-24T22:21:16.161Z,-1.90
2019-02-24T22:23:47.033Z,-2.00
2019-02-24T22:26:18.081Z,-2.20
2019-02-24T22:28:49.130Z,-2.30
2019-02-24T22:31:19.248Z,-2.40
2019-02-24T22:33:50.289Z,-2.40
2019-02-24T22:36:21.339Z,-2.50
2019-02-24T22:38:51.441Z,-2.50
2019-02-24T22:41:23.559Z,-2.50
2019-02-24T22:43:54.641Z,-2.50
2019-02-24T22:46:25.681Z,-2.40
2019-02-24T22:48:55.775Z,-2.20
2019-02-24T22:51:27.901Z,-2.10
2019-02-24T22:53:59.021Z,-2.10
2019-02-24T22:56:29.124Z,-2.20
2019-02-24T22:59:02.324Z,-2.30
2019-02-24T23:01:35.676Z,-2.40
2019-02-24T23:04:12.858Z,-2.40
2019-02-24T23:06:46.041Z,-2.30
2019-02-24T23:09:19.963Z,-2.10
2019-02-24T23:11:51.100Z,-2.00
2019-02-24T23:14:36.373Z,-2.00
2019-02-24T23:17:09.500Z,-2.00
2019-02-24T23:19:39.621Z,-2.00
2019-02-24T23:22:09.721Z,-2.10
2019-02-24T23:24:39.822Z,-2.20
2019-02-24T23:27:11.920Z,-2.30
2019-02-24T23:29:42.015Z,-2.40
2019-02-24T23:32:12.170Z,-2.40
2019-02-24T23:34:44.281Z,-2.50
2019-02-24T23:37:14.360Z,-2.40
2019-02-24T23:39:44.449Z,-2.40
2019-02-24T23:42:20.361Z,-2.50
2019-02-24T23:44:59.346Z,-2.60
2019-02-24T23:47:30.199Z,-2.70
2019-02-24T23:50:00.350Z,-2.70
2019-02-24T23:52:31.061Z,-2.70
2019-02-24T23:55:01.167Z,-2.70
2019-02-24T23:57:31.252Z,-2.70
